sensor_id;sensor_type;location;lat;lon;timestamp;P1;durP1;ratioP1;P2;durP2;ratioP2
27618;SDS011;15039;50.830;4.730;2023-02-18T00:02:01;11.10;;;8.85;;
27618;SDS011;15039;50.830;4.730;2023-02-18T00:04:28;9.38;;;7.43;;
27618;SDS011;15039;50.830;4.730;2023-02-18T00:06:53;10.73;;;7.78;;
27618;SDS011;15039;50.830;4.730;2023-02-18T00:09:19;9.02;;;7.47;;
27618;SDS011;15039;50.830;4.730;2023-02-18T00:11:44;9.35;;;7.30;;
27618;SDS011;15039;50.830;4.730;2023-02-18T00:14:11;10.20;;;7.60;;
27618;SDS011;15039;50.830;4.730;2023-02-18T00:16:37;9.18;;;7.07;;
27618;SDS011;15039;50.830;4.730;2023-02-18T00:19:04;10.90;;;7.10;;
27618;SDS011;15039;50.830;4.730;2023-02-18T00:23:59;8.75;;;7.15;;
27618;SDS011;15039;50.830;4.730;2023-02-18T00:26:25;11.82;;;7.55;;
27618;SDS011;15039;50.830;4.730;2023-02-18T00:28:51;10.88;;;6.75;;
27618;SDS011;15039;50.830;4.730;2023-02-18T00:33:45;9.68;;;7.38;;
27618;SDS011;15039;50.830;4.730;2023-02-18T00:36:12;7.85;;;6.60;;
27618;SDS011;15039;50.830;4.730;2023-02-18T00:38:46;10.27;;;5.97;;
27618;SDS011;15039;50.830;4.730;2023-02-18T00:41:13;7.97;;;6.53;;
27618;SDS011;15039;50.830;4.730;2023-02-18T00:43:39;6.88;;;6.05;;
27618;SDS011;15039;50.830;4.730;2023-02-18T00:46:05;8.82;;;5.93;;
27618;SDS011;15039;50.830;4.730;2023-02-18T00:48:31;7.40;;;5.43;;
27618;SDS011;15039;50.830;4.730;2023-02-18T00:50:57;7.25;;;5.32;;
27618;SDS011;15039;50.830;4.730;2023-02-18T00:53:24;7.45;;;5.53;;
27618;SDS011;15039;50.830;4.730;2023-02-18T00:55:50;7.13;;;5.13;;
27618;SDS011;15039;50.830;4.730;2023-02-18T00:58:16;5.35;;;4.72;;
27618;SDS011;15039;50.830;4.730;2023-02-18T01:00:42;5.45;;;4.80;;
27618;SDS011;15039;50.830;4.730;2023-02-18T01:03:08;6.68;;;4.97;;
27618;SDS011;15039;50.830;4.730;2023-02-18T01:05:34;5.90;;;4.88;;
27618;SDS011;15039;50.830;4.730;2023-02-18T01:08:00;6.40;;;4.88;;
27618;SDS011;15039;50.830;4.730;2023-02-18T01:10:26;4.22;;;3.85;;
27618;SDS011;15039;50.830;4.730;2023-02-18T01:12:52;5.18;;;4.18;;
27618;SDS011;15039;50.830;4.730;2023-02-18T01:15:17;5.22;;;4.35;;
27618;SDS011;15039;50.830;4.730;2023-02-18T01:17:43;5.00;;;3.90;;
27618;SDS011;15039;50.830;4.730;2023-02-18T01:20:09;4.03;;;3.38;;
27618;SDS011;15039;50.830;4.730;2023-02-18T01:22:36;3.47;;;3.17;;
27618;SDS011;15039;50.830;4.730;2023-02-18T01:25:02;3.63;;;3.30;;
27618;SDS011;15039;50.830;4.730;2023-02-18T01:27:28;2.80;;;2.60;;
27618;SDS011;15039;50.830;4.730;2023-02-18T01:29:54;3.75;;;2.78;;
27618;SDS011;15039;50.830;4.730;2023-02-18T01:32:19;3.53;;;2.92;;
27618;SDS011;15039;50.830;4.730;2023-02-18T01:34:47;2.97;;;2.60;;
27618;SDS011;15039;50.830;4.730;2023-02-18T01:37:12;2.47;;;2.28;;
27618;SDS011;15039;50.830;4.730;2023-02-18T01:39:38;2.88;;;2.58;;
27618;SDS011;15039;50.830;4.730;2023-02-18T01:42:04;2.83;;;2.55;;
27618;SDS011;15039;50.830;4.730;2023-02-18T01:44:33;2.95;;;2.75;;
27618;SDS011;15039;50.830;4.730;2023-02-18T01:46:59;2.30;;;2.10;;
27618;SDS011;15039;50.830;4.730;2023-02-18T01:49:29;3.22;;;2.42;;
27618;SDS011;15039;50.830;4.730;2023-02-18T01:51:59;2.65;;;2.45;;
27618;SDS011;15039;50.830;4.730;2023-02-18T01:54:28;2.20;;;2.00;;
27618;SDS011;15039;50.830;4.730;2023-02-18T01:57:06;2.35;;;2.15;;
27618;SDS011;15039;50.830;4.730;2023-02-18T02:02:07;2.80;;;2.08;;
27618;SDS011;15039;50.830;4.730;2023-02-18T02:04:38;3.75;;;2.03;;
27618;SDS011;15039;50.830;4.730;2023-02-18T02:07:03;2.25;;;1.77;;
27618;SDS011;15039;50.830;4.730;2023-02-18T02:09:30;2.10;;;1.90;;
27618;SDS011;15039;50.830;4.730;2023-02-18T02:17:36;2.42;;;1.98;;
27618;SDS011;15039;50.830;4.730;2023-02-18T02:20:28;1.70;;;1.60;;
27618;SDS011;15039;50.830;4.730;2023-02-18T02:29:37;2.10;;;1.90;;
27618;SDS011;15039;50.830;4.730;2023-02-18T02:32:31;1.90;;;1.80;;
27618;SDS011;15039;50.830;4.730;2023-02-18T02:40:19;2.15;;;1.88;;
27618;SDS011;15039;50.830;4.730;2023-02-18T02:42:55;2.15;;;2.05;;
27618;SDS011;15039;50.830;4.730;2023-02-18T02:45:48;3.40;;;2.75;;
27618;SDS011;15039;50.830;4.730;2023-02-18T02:51:09;2.25;;;2.05;;
27618;SDS011;15039;50.830;4.730;2023-02-18T02:53:50;2.45;;;2.25;;
27618;SDS011;15039;50.830;4.730;2023-02-18T02:56:17;2.42;;;2.22;;
27618;SDS011;15039;50.830;4.730;2023-02-18T02:58:45;2.42;;;2.22;;
27618;SDS011;15039;50.830;4.730;2023-02-18T03:01:26;2.60;;;2.40;;
27618;SDS011;15039;50.830;4.730;2023-02-18T03:06:54;3.40;;;2.92;;
27618;SDS011;15039;50.830;4.730;2023-02-18T03:13:08;4.75;;;3.55;;
27618;SDS011;15039;50.830;4.730;2023-02-18T03:18:23;6.45;;;4.40;;
27618;SDS011;15039;50.830;4.730;2023-02-18T03:20:56;7.68;;;4.38;;
27618;SDS011;15039;50.830;4.730;2023-02-18T03:23:32;8.18;;;4.82;;
27618;SDS011;15039;50.830;4.730;2023-02-18T03:26:03;8.27;;;5.72;;
27618;SDS011;15039;50.830;4.730;2023-02-18T03:28:30;9.20;;;5.67;;
27618;SDS011;15039;50.830;4.730;2023-02-18T03:30:59;8.45;;;5.40;;
27618;SDS011;15039;50.830;4.730;2023-02-18T03:36:05;8.60;;;5.45;;
27618;SDS011;15039;50.830;4.730;2023-02-18T03:38:39;9.70;;;5.88;;
27618;SDS011;15039;50.830;4.730;2023-02-18T03:41:14;7.80;;;5.78;;
27618;SDS011;15039;50.830;4.730;2023-02-18T03:43:40;7.85;;;5.22;;
27618;SDS011;15039;50.830;4.730;2023-02-18T03:46:16;6.93;;;4.80;;
27618;SDS011;15039;50.830;4.730;2023-02-18T03:48:42;7.20;;;5.00;;
27618;SDS011;15039;50.830;4.730;2023-02-18T03:51:08;6.88;;;5.07;;
27618;SDS011;15039;50.830;4.730;2023-02-18T03:53:33;7.05;;;4.63;;
27618;SDS011;15039;50.830;4.730;2023-02-18T03:55:59;7.80;;;4.75;;
27618;SDS011;15039;50.830;4.730;2023-02-18T03:58:25;6.85;;;4.07;;
27618;SDS011;15039;50.830;4.730;2023-02-18T04:00:50;4.38;;;3.80;;
27618;SDS011;15039;50.830;4.730;2023-02-18T04:03:16;5.32;;;3.92;;
27618;SDS011;15039;50.830;4.730;2023-02-18T04:05:41;4.47;;;3.63;;
27618;SDS011;15039;50.830;4.730;2023-02-18T04:08:07;4.68;;;3.60;;
27618;SDS011;15039;50.830;4.730;2023-02-18T04:10:32;3.55;;;3.25;;
27618;SDS011;15039;50.830;4.730;2023-02-18T04:12:58;3.95;;;3.20;;
27618;SDS011;15039;50.830;4.730;2023-02-18T04:15:24;3.47;;;3.15;;
27618;SDS011;15039;50.830;4.730;2023-02-18T04:17:49;3.17;;;2.88;;
27618;SDS011;15039;50.830;4.730;2023-02-18T04:20:15;3.33;;;3.03;;
27618;SDS011;15039;50.830;4.730;2023-02-18T04:22:41;3.38;;;3.08;;
27618;SDS011;15039;50.830;4.730;2023-02-18T04:25:07;4.40;;;3.40;;
27618;SDS011;15039;50.830;4.730;2023-02-18T04:27:33;4.75;;;3.88;;
27618;SDS011;15039;50.830;4.730;2023-02-18T04:29:58;6.22;;;5.03;;
27618;SDS011;15039;50.830;4.730;2023-02-18T04:32:24;7.38;;;5.88;;
27618;SDS011;15039;50.830;4.730;2023-02-18T04:34:50;8.45;;;6.38;;
27618;SDS011;15039;50.830;4.730;2023-02-18T04:37:15;10.15;;;7.15;;
27618;SDS011;15039;50.830;4.730;2023-02-18T04:39:41;11.07;;;7.60;;
27618;SDS011;15039;50.830;4.730;2023-02-18T04:42:07;12.82;;;8.23;;
27618;SDS011;15039;50.830;4.730;2023-02-18T04:44:37;14.77;;;9.43;;
27618;SDS011;15039;50.830;4.730;2023-02-18T04:47:03;17.67;;;9.65;;
27618;SDS011;15039;50.830;4.730;2023-02-18T04:49:29;13.93;;;8.75;;
27618;SDS011;15039;50.830;4.730;2023-02-18T04:51:55;13.52;;;9.13;;
27618;SDS011;15039;50.830;4.730;2023-02-18T04:54:20;15.25;;;9.52;;
27618;SDS011;15039;50.830;4.730;2023-02-18T04:56:46;13.43;;;9.55;;
27618;SDS011;15039;50.830;4.730;2023-02-18T04:59:12;13.60;;;8.98;;
27618;SDS011;15039;50.830;4.730;2023-02-18T05:01:37;14.98;;;9.57;;
27618;SDS011;15039;50.830;4.730;2023-02-18T05:04:03;13.43;;;9.07;;
27618;SDS011;15039;50.830;4.730;2023-02-18T05:06:29;13.25;;;8.65;;
27618;SDS011;15039;50.830;4.730;2023-02-18T05:08:54;13.05;;;8.55;;
27618;SDS011;15039;50.830;4.730;2023-02-18T05:11:20;12.73;;;8.25;;
27618;SDS011;15039;50.830;4.730;2023-02-18T05:13:46;14.60;;;9.18;;
27618;SDS011;15039;50.830;4.730;2023-02-18T05:16:11;12.23;;;8.18;;
27618;SDS011;15039;50.830;4.730;2023-02-18T05:18:37;11.57;;;7.43;;
27618;SDS011;15039;50.830;4.730;2023-02-18T05:21:03;11.90;;;7.88;;
27618;SDS011;15039;50.830;4.730;2023-02-18T05:23:29;14.48;;;7.78;;
27618;SDS011;15039;50.830;4.730;2023-02-18T05:25:55;11.35;;;7.10;;
27618;SDS011;15039;50.830;4.730;2023-02-18T05:28:20;11.18;;;7.30;;
27618;SDS011;15039;50.830;4.730;2023-02-18T05:30:46;8.88;;;5.88;;
27618;SDS011;15039;50.830;4.730;2023-02-18T05:33:12;8.20;;;5.20;;
27618;SDS011;15039;50.830;4.730;2023-02-18T05:35:37;8.23;;;5.45;;
27618;SDS011;15039;50.830;4.730;2023-02-18T05:38:03;8.18;;;5.03;;
27618;SDS011;15039;50.830;4.730;2023-02-18T05:40:29;6.07;;;4.22;;
27618;SDS011;15039;50.830;4.730;2023-02-18T05:42:54;5.38;;;4.38;;
27618;SDS011;15039;50.830;4.730;2023-02-18T05:45:20;4.47;;;3.13;;
27618;SDS011;15039;50.830;4.730;2023-02-18T05:47:45;5.15;;;3.65;;
27618;SDS011;15039;50.830;4.730;2023-02-18T05:50:11;5.00;;;3.78;;
27618;SDS011;15039;50.830;4.730;2023-02-18T05:52:37;4.60;;;3.10;;
27618;SDS011;15039;50.830;4.730;2023-02-18T05:55:02;3.67;;;2.97;;
27618;SDS011;15039;50.830;4.730;2023-02-18T05:57:28;3.88;;;2.17;;
27618;SDS011;15039;50.830;4.730;2023-02-18T05:59:54;2.58;;;2.13;;
27618;SDS011;15039;50.830;4.730;2023-02-18T06:02:19;2.50;;;2.03;;
27618;SDS011;15039;50.830;4.730;2023-02-18T06:04:45;2.47;;;1.80;;
27618;SDS011;15039;50.830;4.730;2023-02-18T06:07:10;3.45;;;1.70;;
27618;SDS011;15039;50.830;4.730;2023-02-18T06:09:36;1.65;;;1.50;;
27618;SDS011;15039;50.830;4.730;2023-02-18T06:12:01;3.00;;;1.52;;
27618;SDS011;15039;50.830;4.730;2023-02-18T06:14:27;1.92;;;1.40;;
27618;SDS011;15039;50.830;4.730;2023-02-18T06:16:53;1.65;;;1.55;;
27618;SDS011;15039;50.830;4.730;2023-02-18T06:19:18;3.05;;;1.60;;
27618;SDS011;15039;50.830;4.730;2023-02-18T06:21:44;3.67;;;1.80;;
27618;SDS011;15039;50.830;4.730;2023-02-18T06:24:10;5.43;;;2.00;;
27618;SDS011;15039;50.830;4.730;2023-02-18T06:26:35;7.18;;;2.30;;
27618;SDS011;15039;50.830;4.730;2023-02-18T06:29:01;6.50;;;2.45;;
27618;SDS011;15039;50.830;4.730;2023-02-18T06:31:27;6.75;;;2.25;;
27618;SDS011;15039;50.830;4.730;2023-02-18T06:33:53;7.28;;;2.53;;
27618;SDS011;15039;50.830;4.730;2023-02-18T06:36:18;7.00;;;2.72;;
27618;SDS011;15039;50.830;4.730;2023-02-18T06:38:44;6.95;;;2.75;;
27618;SDS011;15039;50.830;4.730;2023-02-18T06:41:10;11.05;;;3.95;;
27618;SDS011;15039;50.830;4.730;2023-02-18T06:43:37;8.63;;;2.67;;
27618;SDS011;15039;50.830;4.730;2023-02-18T06:46:03;6.30;;;2.45;;
27618;SDS011;15039;50.830;4.730;2023-02-18T06:48:30;7.57;;;2.50;;
27618;SDS011;15039;50.830;4.730;2023-02-18T06:50:56;9.13;;;2.38;;
27618;SDS011;15039;50.830;4.730;2023-02-18T06:53:22;8.45;;;2.22;;
27618;SDS011;15039;50.830;4.730;2023-02-18T06:55:47;7.70;;;2.85;;
27618;SDS011;15039;50.830;4.730;2023-02-18T06:58:13;5.82;;;2.00;;
27618;SDS011;15039;50.830;4.730;2023-02-18T07:00:39;8.13;;;2.33;;
27618;SDS011;15039;50.830;4.730;2023-02-18T07:03:06;5.10;;;2.03;;
27618;SDS011;15039;50.830;4.730;2023-02-18T07:05:32;10.00;;;2.75;;
27618;SDS011;15039;50.830;4.730;2023-02-18T07:07:58;5.80;;;2.00;;
27618;SDS011;15039;50.830;4.730;2023-02-18T07:10:24;6.45;;;2.08;;
27618;SDS011;15039;50.830;4.730;2023-02-18T07:12:49;8.38;;;2.25;;
27618;SDS011;15039;50.830;4.730;2023-02-18T07:15:15;11.38;;;2.78;;
27618;SDS011;15039;50.830;4.730;2023-02-18T07:17:41;4.25;;;2.15;;
27618;SDS011;15039;50.830;4.730;2023-02-18T07:20:07;5.93;;;2.13;;
27618;SDS011;15039;50.830;4.730;2023-02-18T07:22:33;7.03;;;2.30;;
27618;SDS011;15039;50.830;4.730;2023-02-18T07:24:58;11.55;;;2.85;;
27618;SDS011;15039;50.830;4.730;2023-02-18T07:27:24;12.27;;;2.53;;
27618;SDS011;15039;50.830;4.730;2023-02-18T07:29:50;8.23;;;2.55;;
27618;SDS011;15039;50.830;4.730;2023-02-18T07:32:17;9.05;;;2.55;;
27618;SDS011;15039;50.830;4.730;2023-02-18T07:34:43;13.13;;;2.72;;
27618;SDS011;15039;50.830;4.730;2023-02-18T07:37:09;7.05;;;2.47;;
27618;SDS011;15039;50.830;4.730;2023-02-18T07:39:39;8.02;;;2.55;;
27618;SDS011;15039;50.830;4.730;2023-02-18T07:42:07;9.80;;;2.20;;
27618;SDS011;15039;50.830;4.730;2023-02-18T07:44:33;9.23;;;2.03;;
27618;SDS011;15039;50.830;4.730;2023-02-18T07:46:59;5.15;;;2.03;;
27618;SDS011;15039;50.830;4.730;2023-02-18T07:49:25;12.75;;;3.08;;
27618;SDS011;15039;50.830;4.730;2023-02-18T07:51:51;9.07;;;2.22;;
27618;SDS011;15039;50.830;4.730;2023-02-18T07:54:17;4.68;;;2.03;;
27618;SDS011;15039;50.830;4.730;2023-02-18T07:56:43;6.97;;;2.53;;
27618;SDS011;15039;50.830;4.730;2023-02-18T07:59:09;9.93;;;2.70;;
27618;SDS011;15039;50.830;4.730;2023-02-18T08:01:36;4.55;;;2.13;;
27618;SDS011;15039;50.830;4.730;2023-02-18T08:04:01;8.43;;;2.10;;
27618;SDS011;15039;50.830;4.730;2023-02-18T08:06:32;7.60;;;2.00;;
27618;SDS011;15039;50.830;4.730;2023-02-18T08:08:59;8.75;;;1.92;;
27618;SDS011;15039;50.830;4.730;2023-02-18T08:11:25;8.63;;;2.22;;
27618;SDS011;15039;50.830;4.730;2023-02-18T08:13:51;4.95;;;1.90;;
27618;SDS011;15039;50.830;4.730;2023-02-18T08:16:18;7.45;;;1.85;;
27618;SDS011;15039;50.830;4.730;2023-02-18T08:18:45;10.73;;;2.80;;
27618;SDS011;15039;50.830;4.730;2023-02-18T08:21:12;14.88;;;2.47;;
27618;SDS011;15039;50.830;4.730;2023-02-18T08:23:38;6.80;;;2.10;;
27618;SDS011;15039;50.830;4.730;2023-02-18T08:26:04;6.43;;;1.85;;
27618;SDS011;15039;50.830;4.730;2023-02-18T08:28:30;7.00;;;2.10;;
27618;SDS011;15039;50.830;4.730;2023-02-18T08:30:55;5.30;;;1.75;;
27618;SDS011;15039;50.830;4.730;2023-02-18T08:33:22;6.18;;;1.85;;
27618;SDS011;15039;50.830;4.730;2023-02-18T08:35:49;10.45;;;3.35;;
27618;SDS011;15039;50.830;4.730;2023-02-18T08:38:16;9.18;;;2.30;;
27618;SDS011;15039;50.830;4.730;2023-02-18T08:40:42;6.55;;;2.10;;
27618;SDS011;15039;50.830;4.730;2023-02-18T08:43:08;8.77;;;1.70;;
27618;SDS011;15039;50.830;4.730;2023-02-18T08:45:33;8.07;;;1.90;;
27618;SDS011;15039;50.830;4.730;2023-02-18T08:48:02;7.37;;;2.00;;
27618;SDS011;15039;50.830;4.730;2023-02-18T08:50:28;6.75;;;2.30;;
27618;SDS011;15039;50.830;4.730;2023-02-18T08:52:55;6.22;;;2.22;;
27618;SDS011;15039;50.830;4.730;2023-02-18T08:55:21;6.82;;;2.30;;
27618;SDS011;15039;50.830;4.730;2023-02-18T08:57:48;8.88;;;2.25;;
27618;SDS011;15039;50.830;4.730;2023-02-18T09:00:14;4.88;;;1.80;;
27618;SDS011;15039;50.830;4.730;2023-02-18T09:02:41;4.03;;;1.40;;
27618;SDS011;15039;50.830;4.730;2023-02-18T09:05:07;5.30;;;1.83;;
27618;SDS011;15039;50.830;4.730;2023-02-18T09:07:33;6.50;;;1.58;;
27618;SDS011;15039;50.830;4.730;2023-02-18T09:10:00;5.60;;;1.30;;
27618;SDS011;15039;50.830;4.730;2023-02-18T09:12:26;3.08;;;1.15;;
27618;SDS011;15039;50.830;4.730;2023-02-18T09:14:52;6.28;;;2.05;;
27618;SDS011;15039;50.830;4.730;2023-02-18T09:17:18;4.70;;;1.05;;
27618;SDS011;15039;50.830;4.730;2023-02-18T09:19:43;6.82;;;1.30;;
27618;SDS011;15039;50.830;4.730;2023-02-18T09:22:09;3.83;;;1.42;;
27618;SDS011;15039;50.830;4.730;2023-02-18T09:24:36;5.38;;;1.08;;
27618;SDS011;15039;50.830;4.730;2023-02-18T09:27:02;6.57;;;1.15;;
27618;SDS011;15039;50.830;4.730;2023-02-18T09:29:28;2.95;;;1.30;;
27618;SDS011;15039;50.830;4.730;2023-02-18T09:31:53;4.07;;;1.35;;
27618;SDS011;15039;50.830;4.730;2023-02-18T09:34:19;4.75;;;1.50;;
27618;SDS011;15039;50.830;4.730;2023-02-18T09:36:45;5.43;;;1.15;;
27618;SDS011;15039;50.830;4.730;2023-02-18T09:39:11;4.90;;;1.58;;
27618;SDS011;15039;50.830;4.730;2023-02-18T09:41:47;3.53;;;1.27;;
27618;SDS011;15039;50.830;4.730;2023-02-18T09:44:26;5.28;;;1.20;;
27618;SDS011;15039;50.830;4.730;2023-02-18T09:47:12;4.88;;;1.52;;
27618;SDS011;15039;50.830;4.730;2023-02-18T09:49:46;7.07;;;1.40;;
27618;SDS011;15039;50.830;4.730;2023-02-18T09:52:48;3.70;;;1.42;;
27618;SDS011;15039;50.830;4.730;2023-02-18T09:55:22;6.20;;;2.42;;
27618;SDS011;15039;50.830;4.730;2023-02-18T09:57:52;6.65;;;1.10;;
27618;SDS011;15039;50.830;4.730;2023-02-18T10:00:38;4.03;;;1.48;;
27618;SDS011;15039;50.830;4.730;2023-02-18T10:03:09;5.30;;;1.58;;
27618;SDS011;15039;50.830;4.730;2023-02-18T10:05:41;7.72;;;1.52;;
27618;SDS011;15039;50.830;4.730;2023-02-18T10:08:35;2.60;;;1.25;;
27618;SDS011;15039;50.830;4.730;2023-02-18T10:11:05;4.45;;;1.98;;
27618;SDS011;15039;50.830;4.730;2023-02-18T10:13:43;4.63;;;1.88;;
27618;SDS011;15039;50.830;4.730;2023-02-18T10:16:16;4.22;;;1.60;;
27618;SDS011;15039;50.830;4.730;2023-02-18T10:18:43;5.03;;;1.55;;
27618;SDS011;15039;50.830;4.730;2023-02-18T10:21:20;5.93;;;1.75;;
27618;SDS011;15039;50.830;4.730;2023-02-18T10:26:33;4.90;;;1.70;;
27618;SDS011;15039;50.830;4.730;2023-02-18T10:29:01;5.97;;;1.48;;
27618;SDS011;15039;50.830;4.730;2023-02-18T10:31:29;4.43;;;1.70;;
27618;SDS011;15039;50.830;4.730;2023-02-18T10:37:06;5.00;;;1.60;;
27618;SDS011;15039;50.830;4.730;2023-02-18T10:40:06;4.60;;;2.03;;
27618;SDS011;15039;50.830;4.730;2023-02-18T10:51:01;4.90;;;1.70;;
27618;SDS011;15039;50.830;4.730;2023-02-18T10:53:42;3.88;;;1.60;;
27618;SDS011;15039;50.830;4.730;2023-02-18T10:56:53;4.53;;;2.00;;
27618;SDS011;15039;50.830;4.730;2023-02-18T10:59:09;7.32;;;1.88;;
27618;SDS011;15039;50.830;4.730;2023-02-18T11:01:44;8.15;;;2.35;;
27618;SDS011;15039;50.830;4.730;2023-02-18T11:04:17;3.53;;;1.77;;
27618;SDS011;15039;50.830;4.730;2023-02-18T11:06:48;4.65;;;1.75;;
27618;SDS011;15039;50.830;4.730;2023-02-18T11:11:57;6.40;;;2.03;;
27618;SDS011;15039;50.830;4.730;2023-02-18T11:17:32;2.20;;;1.23;;
27618;SDS011;15039;50.830;4.730;2023-02-18T11:20:02;4.22;;;1.65;;
27618;SDS011;15039;50.830;4.730;2023-02-18T11:22:48;7.45;;;2.20;;
27618;SDS011;15039;50.830;4.730;2023-02-18T11:25:21;3.63;;;1.55;;
27618;SDS011;15039;50.830;4.730;2023-02-18T11:27:55;3.70;;;1.65;;
27618;SDS011;15039;50.830;4.730;2023-02-18T11:30:24;2.83;;;1.50;;
27618;SDS011;15039;50.830;4.730;2023-02-18T11:35:54;3.70;;;1.70;;
27618;SDS011;15039;50.830;4.730;2023-02-18T11:38:29;5.07;;;1.52;;
27618;SDS011;15039;50.830;4.730;2023-02-18T11:41:11;5.95;;;1.60;;
27618;SDS011;15039;50.830;4.730;2023-02-18T11:43:40;4.03;;;1.60;;
27618;SDS011;15039;50.830;4.730;2023-02-18T11:46:18;8.05;;;2.22;;
27618;SDS011;15039;50.830;4.730;2023-02-18T11:48:46;3.22;;;1.30;;
27618;SDS011;15039;50.830;4.730;2023-02-18T11:51:20;3.50;;;1.50;;
27618;SDS011;15039;50.830;4.730;2023-02-18T11:53:53;6.47;;;1.70;;
27618;SDS011;15039;50.830;4.730;2023-02-18T11:56:29;4.95;;;1.90;;
27618;SDS011;15039;50.830;4.730;2023-02-18T11:58:57;3.75;;;2.03;;
27618;SDS011;15039;50.830;4.730;2023-02-18T12:04:32;3.60;;;1.73;;
27618;SDS011;15039;50.830;4.730;2023-02-18T12:09:46;6.93;;;1.80;;
27618;SDS011;15039;50.830;4.730;2023-02-18T12:12:43;3.58;;;1.65;;
27618;SDS011;15039;50.830;4.730;2023-02-18T12:15:16;4.30;;;1.90;;
27618;SDS011;15039;50.830;4.730;2023-02-18T12:23:15;5.53;;;1.95;;
27618;SDS011;15039;50.830;4.730;2023-02-18T12:25:58;10.02;;;2.65;;
27618;SDS011;15039;50.830;4.730;2023-02-18T12:28:36;6.93;;;2.10;;
27618;SDS011;15039;50.830;4.730;2023-02-18T12:31:40;4.47;;;1.80;;
27618;SDS011;15039;50.830;4.730;2023-02-18T12:48:31;6.10;;;1.73;;
27618;SDS011;15039;50.830;4.730;2023-02-18T13:02:30;3.78;;;1.95;;
27618;SDS011;15039;50.830;4.730;2023-02-18T13:10:28;6.90;;;1.83;;
27618;SDS011;15039;50.830;4.730;2023-02-18T13:15:52;7.15;;;1.83;;
27618;SDS011;15039;50.830;4.730;2023-02-18T13:18:25;5.43;;;1.57;;
27618;SDS011;15039;50.830;4.730;2023-02-18T13:21:14;7.20;;;2.08;;
27618;SDS011;15039;50.830;4.730;2023-02-18T13:26:28;6.75;;;1.50;;
27618;SDS011;15039;50.830;4.730;2023-02-18T13:31:46;8.93;;;1.67;;
27618;SDS011;15039;50.830;4.730;2023-02-18T13:34:32;4.72;;;1.50;;
27618;SDS011;15039;50.830;4.730;2023-02-18T13:38:11;6.85;;;2.63;;
27618;SDS011;15039;50.830;4.730;2023-02-18T13:40:17;4.57;;;1.80;;
27618;SDS011;15039;50.830;4.730;2023-02-18T13:42:47;6.20;;;1.98;;
27618;SDS011;15039;50.830;4.730;2023-02-18T13:45:25;4.05;;;1.55;;
27618;SDS011;15039;50.830;4.730;2023-02-18T13:47:55;3.15;;;1.60;;
27618;SDS011;15039;50.830;4.730;2023-02-18T13:52:49;4.25;;;1.58;;
27618;SDS011;15039;50.830;4.730;2023-02-18T13:55:22;6.65;;;2.00;;
27618;SDS011;15039;50.830;4.730;2023-02-18T13:58:03;5.47;;;2.00;;
27618;SDS011;15039;50.830;4.730;2023-02-18T14:00:35;8.20;;;2.13;;
27618;SDS011;15039;50.830;4.730;2023-02-18T14:05:57;7.45;;;2.50;;
27618;SDS011;15039;50.830;4.730;2023-02-18T14:08:33;4.60;;;2.15;;
27618;SDS011;15039;50.830;4.730;2023-02-18T14:13:41;4.30;;;1.90;;
27618;SDS011;15039;50.830;4.730;2023-02-18T14:16:19;5.00;;;2.35;;
27618;SDS011;15039;50.830;4.730;2023-02-18T14:33:36;4.75;;;2.30;;
27618;SDS011;15039;50.830;4.730;2023-02-18T14:39:46;3.92;;;1.98;;
27618;SDS011;15039;50.830;4.730;2023-02-18T15:03:45;9.25;;;2.50;;
27618;SDS011;15039;50.830;4.730;2023-02-18T15:09:16;4.32;;;1.73;;
27618;SDS011;15039;50.830;4.730;2023-02-18T15:11:48;7.38;;;2.20;;
27618;SDS011;15039;50.830;4.730;2023-02-18T15:14:19;6.13;;;1.83;;
27618;SDS011;15039;50.830;4.730;2023-02-18T15:16:48;6.07;;;2.38;;
27618;SDS011;15039;50.830;4.730;2023-02-18T15:19:15;6.32;;;2.60;;
27618;SDS011;15039;50.830;4.730;2023-02-18T15:21:47;4.18;;;2.00;;
27618;SDS011;15039;50.830;4.730;2023-02-18T15:24:25;4.30;;;1.75;;
27618;SDS011;15039;50.830;4.730;2023-02-18T15:26:59;3.80;;;1.88;;
27618;SDS011;15039;50.830;4.730;2023-02-18T15:29:27;3.73;;;1.70;;
27618;SDS011;15039;50.830;4.730;2023-02-18T15:31:55;4.93;;;1.63;;
27618;SDS011;15039;50.830;4.730;2023-02-18T15:36:55;5.95;;;2.00;;
27618;SDS011;15039;50.830;4.730;2023-02-18T15:39:21;4.85;;;1.70;;
27618;SDS011;15039;50.830;4.730;2023-02-18T15:41:51;5.88;;;1.98;;
27618;SDS011;15039;50.830;4.730;2023-02-18T15:44:28;5.03;;;1.70;;
27618;SDS011;15039;50.830;4.730;2023-02-18T15:49:26;5.15;;;1.88;;
27618;SDS011;15039;50.830;4.730;2023-02-18T15:51:54;5.18;;;2.10;;
27618;SDS011;15039;50.830;4.730;2023-02-18T15:54:22;3.08;;;1.73;;
27618;SDS011;15039;50.830;4.730;2023-02-18T15:56:49;6.72;;;1.70;;
27618;SDS011;15039;50.830;4.730;2023-02-18T16:04:36;2.90;;;1.75;;
27618;SDS011;15039;50.830;4.730;2023-02-18T16:07:15;3.42;;;1.95;;
27618;SDS011;15039;50.830;4.730;2023-02-18T16:09:46;5.28;;;1.98;;
27618;SDS011;15039;50.830;4.730;2023-02-18T16:12:15;3.95;;;1.80;;
27618;SDS011;15039;50.830;4.730;2023-02-18T16:14:52;4.32;;;1.90;;
27618;SDS011;15039;50.830;4.730;2023-02-18T16:17:20;4.32;;;2.42;;
27618;SDS011;15039;50.830;4.730;2023-02-18T16:19:54;5.88;;;2.15;;
27618;SDS011;15039;50.830;4.730;2023-02-18T16:25:05;5.25;;;1.92;;
27618;SDS011;15039;50.830;4.730;2023-02-18T16:27:35;4.97;;;2.20;;
27618;SDS011;15039;50.830;4.730;2023-02-18T16:32:45;5.03;;;2.10;;
27618;SDS011;15039;50.830;4.730;2023-02-18T16:35:11;3.60;;;1.80;;
27618;SDS011;15039;50.830;4.730;2023-02-18T16:37:37;5.95;;;1.88;;
27618;SDS011;15039;50.830;4.730;2023-02-18T16:40:18;5.38;;;1.52;;
27618;SDS011;15039;50.830;4.730;2023-02-18T16:42:53;2.72;;;1.60;;
27618;SDS011;15039;50.830;4.730;2023-02-18T16:45:21;2.47;;;1.63;;
27618;SDS011;15039;50.830;4.730;2023-02-18T16:47:57;6.15;;;2.38;;
27618;SDS011;15039;50.830;4.730;2023-02-18T16:50:23;4.22;;;2.22;;
27618;SDS011;15039;50.830;4.730;2023-02-18T16:52:52;2.63;;;1.65;;
27618;SDS011;15039;50.830;4.730;2023-02-18T16:55:19;4.47;;;1.92;;
27618;SDS011;15039;50.830;4.730;2023-02-18T16:57:46;6.88;;;1.75;;
27618;SDS011;15039;50.830;4.730;2023-02-18T17:00:13;3.45;;;2.20;;
27618;SDS011;15039;50.830;4.730;2023-02-18T17:02:40;5.05;;;2.25;;
27618;SDS011;15039;50.830;4.730;2023-02-18T17:05:16;5.00;;;2.20;;
27618;SDS011;15039;50.830;4.730;2023-02-18T17:07:43;5.53;;;4.15;;
27618;SDS011;15039;50.830;4.730;2023-02-18T17:10:09;7.45;;;4.20;;
27618;SDS011;15039;50.830;4.730;2023-02-18T17:12:35;5.18;;;3.70;;
27618;SDS011;15039;50.830;4.730;2023-02-18T17:15:14;3.28;;;2.20;;
27618;SDS011;15039;50.830;4.730;2023-02-18T17:17:47;7.10;;;2.38;;
27618;SDS011;15039;50.830;4.730;2023-02-18T17:20:13;2.88;;;1.85;;
27618;SDS011;15039;50.830;4.730;2023-02-18T17:22:39;3.38;;;2.17;;
27618;SDS011;15039;50.830;4.730;2023-02-18T17:25:09;4.70;;;2.30;;
27618;SDS011;15039;50.830;4.730;2023-02-18T17:27:46;5.35;;;2.65;;
27618;SDS011;15039;50.830;4.730;2023-02-18T17:30:12;7.35;;;3.10;;
27618;SDS011;15039;50.830;4.730;2023-02-18T17:32:37;3.67;;;2.95;;
27618;SDS011;15039;50.830;4.730;2023-02-18T17:35:04;5.70;;;3.58;;
27618;SDS011;15039;50.830;4.730;2023-02-18T17:37:30;6.00;;;3.78;;
27618;SDS011;15039;50.830;4.730;2023-02-18T17:39:56;6.68;;;4.20;;
27618;SDS011;15039;50.830;4.730;2023-02-18T17:42:22;5.57;;;4.60;;
27618;SDS011;15039;50.830;4.730;2023-02-18T17:44:47;6.88;;;4.60;;
27618;SDS011;15039;50.830;4.730;2023-02-18T17:47:13;6.72;;;5.30;;
27618;SDS011;15039;50.830;4.730;2023-02-18T17:49:39;6.85;;;6.03;;
27618;SDS011;15039;50.830;4.730;2023-02-18T17:52:05;8.63;;;6.10;;
27618;SDS011;15039;50.830;4.730;2023-02-18T17:54:31;6.63;;;5.47;;
27618;SDS011;15039;50.830;4.730;2023-02-18T17:56:56;6.82;;;5.38;;
27618;SDS011;15039;50.830;4.730;2023-02-18T17:59:22;7.18;;;5.50;;